createdAt,value
2022-08-26T00:00:03.536Z,0.00
2022-08-26T00:01:03.754Z,0.00
2022-08-26T00:02:01.882Z,0.00
2022-08-26T00:03:01.804Z,0.00
2022-08-26T00:04:02.005Z,0.00
2022-08-26T00:05:01.977Z,0.00
2022-08-26T00:06:01.817Z,0.00
2022-08-26T00:07:02.406Z,0.12
2022-08-26T00:08:02.875Z,1.12
2022-08-26T00:09:02.713Z,1.18
2022-08-26T00:10:02.725Z,0.56
2022-08-26T00:11:02.486Z,0.08
2022-08-26T00:12:02.247Z,1.02
2022-08-26T00:13:02.489Z,0.56
2022-08-26T00:14:02.065Z,0.73
2022-08-26T00:15:02.682Z,0.00
2022-08-26T00:16:02.147Z,0.00
2022-08-26T00:17:02.356Z,1.00
2022-08-26T00:18:02.682Z,0.00
2022-08-26T00:19:02.623Z,0.00
2022-08-26T00:20:02.368Z,0.00
2022-08-26T00:21:06.268Z,0.00
2022-08-26T00:22:02.770Z,0.00
2022-08-26T00:23:02.701Z,0.00
2022-08-26T00:24:03.082Z,0.00
2022-08-26T00:25:03.111Z,0.12
2022-08-26T00:26:03.056Z,0.08
2022-08-26T00:27:01.851Z,0.29
2022-08-26T00:28:02.455Z,0.84
2022-08-26T00:29:02.163Z,0.16
2022-08-26T00:30:02.218Z,0.80
2022-08-26T00:31:02.148Z,0.37
2022-08-26T00:32:02.152Z,0.00
2022-08-26T00:33:02.077Z,0.12
2022-08-26T00:34:02.244Z,0.00
2022-08-26T00:35:02.123Z,0.00
2022-08-26T00:36:02.167Z,0.00
2022-08-26T00:37:02.185Z,0.00
2022-08-26T00:38:02.021Z,0.00
2022-08-26T00:39:02.057Z,0.00
2022-08-26T00:40:05.364Z,0.00
2022-08-26T00:41:02.337Z,0.00
2022-08-26T00:42:02.115Z,0.00
2022-08-26T00:43:02.232Z,0.00
2022-08-26T00:44:02.467Z,0.00
2022-08-26T00:45:02.678Z,0.00
2022-08-26T00:46:02.572Z,0.00
2022-08-26T00:47:02.813Z,0.00
2022-08-26T00:48:02.875Z,0.00
2022-08-26T00:49:02.875Z,0.00
2022-08-26T00:50:02.390Z,0.00
2022-08-26T00:51:02.632Z,0.00
2022-08-26T00:52:02.318Z,0.00
2022-08-26T00:53:02.284Z,0.00
2022-08-26T00:54:02.265Z,0.00
2022-08-26T00:55:02.568Z,0.00
2022-08-26T00:56:02.417Z,0.00
2022-08-26T00:57:02.960Z,0.00
2022-08-26T00:58:02.973Z,0.00
2022-08-26T00:59:02.791Z,0.00
2022-08-26T01:00:02.852Z,0.00
2022-08-26T01:01:02.980Z,0.00
2022-08-26T01:02:03.226Z,0.00
2022-08-26T01:03:02.536Z,0.00
2022-08-26T01:04:02.478Z,0.00
2022-08-26T01:05:03.218Z,0.00
2022-08-26T01:06:03.031Z,0.00
2022-08-26T01:07:02.133Z,0.00
2022-08-26T01:08:02.242Z,0.00
2022-08-26T01:09:01.702Z,0.00
2022-08-26T01:10:01.706Z,0.00
2022-08-26T01:11:02.320Z,0.00
2022-08-26T01:12:02.232Z,0.00
2022-08-26T01:13:01.937Z,0.00
2022-08-26T01:14:01.894Z,0.00
2022-08-26T01:15:02.425Z,0.00
2022-08-26T01:16:02.193Z,0.00
2022-08-26T01:17:02.835Z,0.00
2022-08-26T01:18:03.032Z,0.00
2022-08-26T01:19:02.992Z,0.00
2022-08-26T01:20:03.124Z,0.00
2022-08-26T01:21:02.832Z,0.00
2022-08-26T01:22:02.914Z,0.00
2022-08-26T01:23:03.317Z,0.00
2022-08-26T01:24:02.857Z,0.08
2022-08-26T01:25:03.606Z,0.20
2022-08-26T01:26:03.096Z,0.00
2022-08-26T01:27:02.901Z,0.00
2022-08-26T01:28:02.891Z,0.00
2022-08-26T01:29:02.682Z,0.00
2022-08-26T01:30:03.323Z,0.00
2022-08-26T01:31:03.277Z,0.00
2022-08-26T01:32:01.878Z,0.00
2022-08-26T01:33:02.479Z,0.00
2022-08-26T01:34:02.265Z,0.00
2022-08-26T01:35:02.187Z,0.00
2022-08-26T01:36:02.109Z,0.00
2022-08-26T01:37:02.725Z,0.00
2022-08-26T01:38:02.631Z,0.00
2022-08-26T01:39:02.655Z,0.00
2022-08-26T01:40:02.782Z,0.00
2022-08-26T01:41:02.748Z,0.24
2022-08-26T01:42:03.139Z,0.00
2022-08-26T01:43:01.952Z,0.00
2022-08-26T01:44:02.636Z,0.00
2022-08-26T01:45:02.550Z,0.00
2022-08-26T01:46:02.336Z,0.00
2022-08-26T01:47:02.841Z,0.00
2022-08-26T01:48:03.035Z,0.00
2022-08-26T01:49:02.886Z,0.00
2022-08-26T01:50:03.093Z,0.00
2022-08-26T01:51:02.860Z,0.00
2022-08-26T01:52:03.087Z,0.00
2022-08-26T01:53:02.760Z,0.00
2022-08-26T01:54:03.175Z,0.00
2022-08-26T01:55:03.176Z,0.00
2022-08-26T01:56:02.842Z,0.00
2022-08-26T01:57:02.630Z,0.00
2022-08-26T01:58:02.321Z,0.00
2022-08-26T01:59:02.303Z,0.00
2022-08-26T02:00:02.640Z,0.00
2022-08-26T02:01:02.629Z,0.00
2022-08-26T02:02:02.663Z,0.00
2022-08-26T02:03:02.728Z,0.00
2022-08-26T02:04:02.696Z,0.00
2022-08-26T02:05:02.639Z,0.00
2022-08-26T02:06:02.994Z,0.00
2022-08-26T02:07:03.616Z,0.00
2022-08-26T02:08:03.185Z,0.00
2022-08-26T02:09:03.742Z,0.00
2022-08-26T02:10:03.414Z,0.00
2022-08-26T02:11:03.332Z,0.00
2022-08-26T02:12:03.850Z,0.00
2022-08-26T02:13:03.852Z,0.00
2022-08-26T02:14:03.713Z,0.00
2022-08-26T02:15:05.693Z,0.00
2022-08-26T02:16:03.569Z,0.00
2022-08-26T02:17:03.165Z,0.00
2022-08-26T02:18:03.017Z,0.00
2022-08-26T02:19:02.771Z,0.00
2022-08-26T02:20:02.607Z,0.00
2022-08-26T02:21:03.226Z,0.00
2022-08-26T02:22:03.598Z,0.00
2022-08-26T02:23:03.695Z,0.00
2022-08-26T02:24:03.559Z,0.00
2022-08-26T02:25:03.565Z,0.00
2022-08-26T02:26:03.472Z,0.00
2022-08-26T02:27:04.103Z,0.00
2022-08-26T02:28:04.160Z,0.00
2022-08-26T02:29:04.046Z,0.00
2022-08-26T02:30:03.957Z,0.00
2022-08-26T02:31:03.870Z,0.00
2022-08-26T02:32:02.919Z,0.00
2022-08-26T02:33:03.401Z,0.00
2022-08-26T02:34:03.258Z,0.00
2022-08-26T02:35:02.925Z,0.00
2022-08-26T02:36:03.113Z,0.00
2022-08-26T02:37:03.114Z,0.00
2022-08-26T02:38:03.189Z,0.00
2022-08-26T02:39:03.309Z,0.00
2022-08-26T02:40:03.422Z,0.00
2022-08-26T02:41:03.410Z,0.00
2022-08-26T02:42:03.872Z,0.00
2022-08-26T02:43:03.550Z,0.00
2022-08-26T02:44:04.034Z,0.00
2022-08-26T02:45:03.940Z,0.00
2022-08-26T02:46:04.057Z,0.00
2022-08-26T02:47:03.606Z,0.00
2022-08-26T02:48:04.193Z,0.00
2022-08-26T02:49:03.942Z,0.00
2022-08-26T02:50:03.930Z,0.00
2022-08-26T02:51:03.875Z,0.00
2022-08-26T02:52:02.882Z,0.00
2022-08-26T02:53:03.516Z,0.00
2022-08-26T02:54:03.703Z,0.00
2022-08-26T02:55:03.193Z,0.00
2022-08-26T02:56:03.159Z,0.00
2022-08-26T02:57:03.566Z,0.00
2022-08-26T02:58:03.608Z,0.00
2022-08-26T02:59:03.580Z,0.00
2022-08-26T03:00:03.333Z,0.00
2022-08-26T03:01:04.971Z,0.00
2022-08-26T03:02:02.902Z,0.00
2022-08-26T03:03:02.793Z,0.00
2022-08-26T03:04:02.529Z,0.00
2022-08-26T03:05:02.540Z,0.00
2022-08-26T03:06:02.588Z,0.00
2022-08-26T03:07:02.830Z,0.00
2022-08-26T03:08:02.726Z,0.00
2022-08-26T03:09:02.690Z,0.00
2022-08-26T03:10:08.247Z,0.00
2022-08-26T03:11:02.572Z,0.00
2022-08-26T03:12:02.709Z,0.00
2022-08-26T03:13:05.056Z,0.00
2022-08-26T03:14:03.668Z,0.00
2022-08-26T03:15:02.860Z,0.00
2022-08-26T03:16:03.075Z,0.00
2022-08-26T03:17:02.486Z,0.00
2022-08-26T03:18:02.954Z,0.00
2022-08-26T03:19:02.675Z,0.00
2022-08-26T03:20:02.766Z,0.00
2022-08-26T03:21:02.834Z,0.00
2022-08-26T03:22:02.781Z,0.00
2022-08-26T03:23:02.706Z,0.00
2022-08-26T03:24:03.105Z,0.00
2022-08-26T03:25:02.957Z,0.00
2022-08-26T03:26:03.136Z,0.00
2022-08-26T03:27:05.930Z,0.00
2022-08-26T03:28:03.117Z,0.00
2022-08-26T03:29:03.332Z,0.00
2022-08-26T03:30:03.316Z,0.00
2022-08-26T03:31:03.636Z,0.00
2022-08-26T03:32:03.376Z,0.00
2022-08-26T03:33:03.348Z,0.00
2022-08-26T03:34:03.688Z,0.00
2022-08-26T03:35:03.529Z,0.00
2022-08-26T03:36:03.541Z,0.00
2022-08-26T03:37:03.318Z,0.00
2022-08-26T03:38:03.302Z,0.00
2022-08-26T03:39:03.195Z,0.00
2022-08-26T03:40:03.243Z,0.00
2022-08-26T03:41:03.124Z,0.53
2022-08-26T03:42:03.143Z,1.20
2022-08-26T03:43:03.196Z,1.04
2022-08-26T03:44:03.172Z,0.49
2022-08-26T03:45:03.341Z,0.00
2022-08-26T03:46:03.546Z,0.00
2022-08-26T03:47:02.656Z,0.00
2022-08-26T03:48:02.565Z,0.00
2022-08-26T03:49:02.488Z,0.00
2022-08-26T03:50:02.595Z,0.00
2022-08-26T03:51:03.168Z,0.00
2022-08-26T03:52:03.025Z,0.00
2022-08-26T03:53:03.226Z,0.00
2022-08-26T03:54:02.722Z,0.00
2022-08-26T03:55:02.778Z,0.00
2022-08-26T03:56:02.996Z,0.00
2022-08-26T03:57:03.065Z,0.00
2022-08-26T03:58:03.102Z,0.00
2022-08-26T03:59:03.270Z,0.00
2022-08-26T04:00:03.129Z,0.00
2022-08-26T04:01:02.773Z,0.00
2022-08-26T04:02:02.377Z,0.00
2022-08-26T04:03:02.539Z,0.48
2022-08-26T04:04:02.408Z,1.34
2022-08-26T04:05:02.135Z,1.38
2022-08-26T04:06:02.049Z,1.38
2022-08-26T04:07:02.620Z,1.12
2022-08-26T04:08:02.365Z,1.30
2022-08-26T04:09:02.626Z,1.12
2022-08-26T04:10:02.725Z,0.68
2022-08-26T04:11:02.813Z,0.04
2022-08-26T04:12:02.803Z,0.57
2022-08-26T04:13:02.416Z,0.94
2022-08-26T04:14:03.012Z,0.04
2022-08-26T04:15:03.042Z,0.28
2022-08-26T04:16:02.686Z,0.49
2022-08-26T04:17:02.181Z,0.49
2022-08-26T04:18:02.577Z,0.68
2022-08-26T04:19:02.625Z,0.76
2022-08-26T04:20:02.357Z,0.20
2022-08-26T04:21:02.505Z,0.00
2022-08-26T04:22:02.716Z,0.32
2022-08-26T04:23:02.908Z,0.00
2022-08-26T04:24:03.604Z,0.00
2022-08-26T04:25:02.994Z,0.53
2022-08-26T04:26:03.127Z,0.80
2022-08-26T04:27:02.709Z,0.28
2022-08-26T04:28:02.275Z,0.00
2022-08-26T04:29:02.719Z,0.00
2022-08-26T04:30:02.606Z,0.00
2022-08-26T04:31:02.239Z,0.00
2022-08-26T04:32:02.917Z,0.00
2022-08-26T04:33:03.221Z,0.00
2022-08-26T04:34:02.779Z,0.04
2022-08-26T04:35:03.173Z,0.12
2022-08-26T04:36:02.589Z,0.53
2022-08-26T04:37:03.190Z,0.88
2022-08-26T04:38:03.432Z,0.56
2022-08-26T04:39:03.139Z,0.28
2022-08-26T04:40:03.554Z,0.16
2022-08-26T04:41:03.336Z,0.73
2022-08-26T04:42:03.622Z,0.48
2022-08-26T04:43:03.216Z,0.37
2022-08-26T04:44:03.214Z,0.61
2022-08-26T04:45:05.683Z,1.16
2022-08-26T04:46:03.579Z,0.81
2022-08-26T04:47:03.038Z,1.10
2022-08-26T04:48:02.909Z,0.24
2022-08-26T04:49:02.801Z,0.24
2022-08-26T04:50:03.209Z,0.04
2022-08-26T04:51:03.007Z,0.94
2022-08-26T04:52:02.734Z,0.81
2022-08-26T04:53:02.315Z,0.37
2022-08-26T04:54:02.279Z,0.56
2022-08-26T04:55:02.472Z,0.80
2022-08-26T04:56:02.505Z,0.28
2022-08-26T04:57:03.342Z,0.52
2022-08-26T04:58:02.820Z,0.57
2022-08-26T04:59:02.894Z,1.12
2022-08-26T05:00:03.152Z,0.84
2022-08-26T05:01:03.055Z,1.02
2022-08-26T05:02:02.976Z,0.45
2022-08-26T05:03:02.519Z,0.24
2022-08-26T05:04:03.029Z,0.00
2022-08-26T05:05:02.657Z,0.33
2022-08-26T05:06:02.550Z,0.00
2022-08-26T05:07:02.673Z,0.00
2022-08-26T05:08:02.126Z,0.00
2022-08-26T05:09:02.217Z,0.00
2022-08-26T05:10:02.644Z,0.00
2022-08-26T05:11:02.412Z,0.00
2022-08-26T05:12:02.645Z,0.28
2022-08-26T05:13:02.999Z,0.80
2022-08-26T05:14:03.009Z,0.76
2022-08-26T05:15:02.646Z,0.33
2022-08-26T05:16:03.088Z,0.12
2022-08-26T05:17:02.812Z,0.28
2022-08-26T05:18:02.346Z,0.69
2022-08-26T05:19:02.736Z,0.84
2022-08-26T05:20:02.397Z,0.45
2022-08-26T05:21:02.340Z,0.69
2022-08-26T05:22:02.459Z,0.60
2022-08-26T05:23:02.899Z,0.04
2022-08-26T05:24:02.831Z,0.69
2022-08-26T05:25:02.789Z,1.06
2022-08-26T05:26:02.404Z,0.49
2022-08-26T05:27:03.125Z,0.32
2022-08-26T05:28:02.695Z,0.85
2022-08-26T05:29:02.741Z,0.20
2022-08-26T05:30:03.136Z,0.96
2022-08-26T05:31:02.701Z,0.33
2022-08-26T05:32:02.912Z,0.40
2022-08-26T05:33:03.185Z,0.48
2022-08-26T05:34:03.722Z,0.77
2022-08-26T05:35:03.099Z,0.20
2022-08-26T05:36:02.706Z,0.37
2022-08-26T05:37:02.135Z,0.00
2022-08-26T05:38:02.224Z,0.24
2022-08-26T05:39:02.337Z,0.92
2022-08-26T05:40:02.621Z,1.00
2022-08-26T05:41:02.365Z,0.81
2022-08-26T05:42:02.895Z,0.32
2022-08-26T05:43:02.592Z,0.53
2022-08-26T05:44:02.811Z,0.88
2022-08-26T05:45:02.815Z,0.48
2022-08-26T05:46:03.127Z,0.68
2022-08-26T05:47:02.481Z,0.12
2022-08-26T05:48:02.677Z,0.04
2022-08-26T05:49:02.544Z,0.00
2022-08-26T05:50:02.750Z,0.12
2022-08-26T05:51:02.669Z,0.41
2022-08-26T05:52:03.260Z,0.84
2022-08-26T05:53:02.817Z,0.57
2022-08-26T05:54:02.704Z,1.14
2022-08-26T05:55:03.362Z,0.84
2022-08-26T05:56:03.140Z,0.00
2022-08-26T05:57:02.418Z,0.41
2022-08-26T05:58:02.894Z,0.04
2022-08-26T05:59:02.911Z,0.92
2022-08-26T06:00:02.343Z,0.57
2022-08-26T06:01:02.942Z,0.44
2022-08-26T06:02:03.115Z,0.20
2022-08-26T06:03:03.397Z,1.00
2022-08-26T06:04:03.069Z,0.77
2022-08-26T06:05:02.756Z,0.49
2022-08-26T06:06:02.759Z,0.32
2022-08-26T06:07:03.375Z,0.00
2022-08-26T06:08:03.070Z,0.00
2022-08-26T06:09:03.078Z,0.56
2022-08-26T06:10:28.691Z,0.68
2022-08-26T06:11:02.938Z,0.24
2022-08-26T06:12:03.159Z,0.76
2022-08-26T06:13:11.897Z,1.18
2022-08-26T06:14:03.728Z,1.04
2022-08-26T06:15:04.122Z,0.61
2022-08-26T06:16:03.404Z,0.04
2022-08-26T06:17:02.339Z,0.00
2022-08-26T06:18:02.435Z,0.16
2022-08-26T06:19:02.612Z,0.68
2022-08-26T06:20:02.373Z,0.57
2022-08-26T06:21:03.016Z,0.84
2022-08-26T06:22:02.668Z,0.81
2022-08-26T06:23:02.688Z,0.52
2022-08-26T06:24:02.767Z,0.00
2022-08-26T06:25:02.808Z,0.00
2022-08-26T06:26:03.202Z,0.20
2022-08-26T06:27:03.453Z,0.00
2022-08-26T06:28:03.176Z,0.57
2022-08-26T06:29:02.902Z,1.22
2022-08-26T06:30:03.455Z,0.56
2022-08-26T06:31:03.072Z,0.81
2022-08-26T06:32:03.614Z,0.88
2022-08-26T06:33:03.475Z,0.57
2022-08-26T06:34:07.254Z,0.20
2022-08-26T06:35:03.456Z,0.00
2022-08-26T06:36:03.638Z,0.36
2022-08-26T06:37:03.524Z,0.08
2022-08-26T06:38:03.752Z,0.40
2022-08-26T06:39:03.367Z,1.10
2022-08-26T06:40:03.880Z,0.68
2022-08-26T06:41:03.703Z,0.65
2022-08-26T06:42:03.078Z,1.34
2022-08-26T06:43:03.050Z,0.92
2022-08-26T06:44:03.095Z,0.72
2022-08-26T06:45:02.568Z,1.26
2022-08-26T06:46:02.809Z,0.80
2022-08-26T06:47:03.434Z,0.84
2022-08-26T06:48:03.656Z,1.08
2022-08-26T06:49:03.254Z,0.49
2022-08-26T06:50:03.393Z,0.00
2022-08-26T06:51:03.539Z,0.60
2022-08-26T06:52:02.623Z,0.77
2022-08-26T06:53:03.172Z,1.00
2022-08-26T06:54:03.067Z,0.49
2022-08-26T06:55:02.780Z,0.00
2022-08-26T06:56:03.177Z,0.48
2022-08-26T06:57:03.219Z,1.12
2022-08-26T06:58:03.435Z,0.00
2022-08-26T06:59:03.443Z,0.20
2022-08-26T07:00:02.993Z,0.20
2022-08-26T07:01:11.341Z,1.56
2022-08-26T07:02:02.586Z,1.42
2022-08-26T07:03:02.625Z,1.08
2022-08-26T07:04:02.503Z,0.81
2022-08-26T07:05:02.684Z,0.00
2022-08-26T07:06:02.605Z,0.28
2022-08-26T07:07:02.416Z,0.53
2022-08-26T07:08:02.334Z,0.49
2022-08-26T07:09:03.370Z,0.28
2022-08-26T07:10:02.156Z,0.49
2022-08-26T07:11:02.566Z,0.40
2022-08-26T07:12:02.799Z,0.56
2022-08-26T07:13:02.897Z,0.44
2022-08-26T07:14:02.651Z,0.37
2022-08-26T07:15:02.553Z,0.53
2022-08-26T07:16:02.912Z,1.08
2022-08-26T07:17:02.525Z,0.61
2022-08-26T07:18:02.247Z,0.85
2022-08-26T07:19:03.284Z,1.02
2022-08-26T07:20:02.285Z,1.28
2022-08-26T07:21:02.397Z,0.60
2022-08-26T07:22:03.352Z,0.64
2022-08-26T07:23:03.144Z,0.92
2022-08-26T07:24:03.090Z,0.81
2022-08-26T07:25:02.792Z,0.81
2022-08-26T07:26:02.805Z,0.72
2022-08-26T07:27:02.811Z,0.65
2022-08-26T07:28:02.582Z,1.24
2022-08-26T07:29:02.474Z,0.81
2022-08-26T07:30:02.859Z,1.68
2022-08-26T07:31:02.793Z,0.98
2022-08-26T07:32:03.264Z,1.08
2022-08-26T07:33:02.765Z,0.45
2022-08-26T07:34:03.112Z,1.16
2022-08-26T07:35:03.122Z,0.84
2022-08-26T07:36:02.783Z,0.04
2022-08-26T07:37:02.968Z,0.96
2022-08-26T07:38:03.027Z,1.12
2022-08-26T07:39:02.997Z,1.42
2022-08-26T07:40:02.971Z,0.85
2022-08-26T07:41:02.383Z,0.85
2022-08-26T07:42:07.759Z,0.56
2022-08-26T07:43:02.932Z,0.45
2022-08-26T07:44:02.528Z,0.98
2022-08-26T07:45:02.528Z,0.73
2022-08-26T07:46:02.830Z,1.36
2022-08-26T07:47:03.331Z,1.44
2022-08-26T07:48:03.983Z,1.26
2022-08-26T07:49:03.147Z,0.44
2022-08-26T07:50:03.546Z,0.64
2022-08-26T07:51:03.514Z,0.53
2022-08-26T07:52:03.420Z,0.16
2022-08-26T07:53:03.393Z,0.61
2022-08-26T07:54:03.337Z,0.90
2022-08-26T07:55:03.437Z,1.04
2022-08-26T07:56:02.988Z,0.16
2022-08-26T07:57:02.176Z,1.02
2022-08-26T07:58:02.379Z,1.36
2022-08-26T07:59:02.547Z,1.04
2022-08-26T08:00:02.534Z,0.45
2022-08-26T08:01:02.361Z,1.14
2022-08-26T08:02:02.685Z,0.44
2022-08-26T08:03:02.537Z,1.26
2022-08-26T08:04:02.588Z,1.76
2022-08-26T08:05:02.932Z,1.72
2022-08-26T08:06:02.500Z,1.55
2022-08-26T08:07:02.764Z,0.80
2022-08-26T08:08:26.264Z,0.84
2022-08-26T08:09:03.222Z,1.88
2022-08-26T08:10:05.576Z,0.24
2022-08-26T08:11:03.159Z,1.00
2022-08-26T08:12:03.084Z,1.02
2022-08-26T08:13:03.373Z,1.16
2022-08-26T08:14:03.303Z,1.71
2022-08-26T08:15:03.418Z,1.32
2022-08-26T08:16:03.195Z,0.73
2022-08-26T08:17:03.149Z,0.90
2022-08-26T08:18:02.942Z,1.02
2022-08-26T08:19:02.940Z,0.98
2022-08-26T08:20:02.839Z,1.71
2022-08-26T08:21:21.264Z,1.08
2022-08-26T08:22:02.899Z,0.53
2022-08-26T08:23:03.214Z,0.84
2022-08-26T08:24:03.402Z,2.04
2022-08-26T08:25:08.046Z,1.38
2022-08-26T08:26:02.944Z,0.73
2022-08-26T08:27:02.682Z,1.10
2022-08-26T08:28:02.570Z,0.73
2022-08-26T08:29:02.953Z,1.76
2022-08-26T08:30:02.745Z,2.56
2022-08-26T08:31:02.806Z,1.80
2022-08-26T08:32:03.214Z,1.56
2022-08-26T08:33:03.094Z,1.79
2022-08-26T08:34:03.413Z,1.16
2022-08-26T08:35:10.945Z,1.51
2022-08-26T08:36:03.541Z,0.68
2022-08-26T08:37:04.405Z,0.94
2022-08-26T08:38:04.281Z,0.64
2022-08-26T08:39:03.172Z,0.16
2022-08-26T08:40:03.890Z,1.00
2022-08-26T08:41:05.528Z,1.24
2022-08-26T08:42:03.012Z,0.45
2022-08-26T08:43:03.097Z,0.00
2022-08-26T08:44:03.186Z,0.04
2022-08-26T08:45:02.793Z,1.26
2022-08-26T08:46:03.170Z,1.40
2022-08-26T08:47:03.167Z,0.64
2022-08-26T08:48:03.528Z,0.36
2022-08-26T08:49:03.004Z,0.81
2022-08-26T08:50:03.688Z,0.64
2022-08-26T08:51:03.551Z,0.41
2022-08-26T08:52:04.231Z,0.96
2022-08-26T08:53:03.663Z,0.77
2022-08-26T08:54:03.717Z,0.96
2022-08-26T08:55:04.190Z,0.96
2022-08-26T08:56:04.083Z,0.69
2022-08-26T08:57:03.051Z,1.24
2022-08-26T08:58:03.251Z,0.76
2022-08-26T08:59:02.871Z,1.91
2022-08-26T09:00:03.354Z,0.52
2022-08-26T09:01:03.122Z,1.06
2022-08-26T09:02:02.484Z,0.69
2022-08-26T09:03:02.595Z,1.12
2022-08-26T09:04:02.281Z,0.77
2022-08-26T09:05:02.657Z,0.36
2022-08-26T09:06:02.290Z,0.85
2022-08-26T09:07:02.720Z,0.44
2022-08-26T09:08:02.682Z,0.94
2022-08-26T09:09:02.509Z,0.24
2022-08-26T09:10:02.643Z,0.00
2022-08-26T09:11:02.799Z,0.84
2022-08-26T09:12:01.929Z,1.26
2022-08-26T09:13:02.471Z,0.72
2022-08-26T09:14:02.325Z,0.68
2022-08-26T09:15:02.488Z,0.88
2022-08-26T09:16:01.833Z,0.57
2022-08-26T09:17:02.513Z,0.52
2022-08-26T09:18:02.842Z,1.72
2022-08-26T09:19:02.153Z,0.94
2022-08-26T09:20:02.284Z,0.56
2022-08-26T09:21:02.474Z,1.44
2022-08-26T09:22:06.966Z,0.44
2022-08-26T09:23:02.426Z,0.94
2022-08-26T09:24:02.625Z,0.68
2022-08-26T09:25:02.585Z,1.26
2022-08-26T09:26:02.778Z,0.48
2022-08-26T09:27:02.924Z,1.24
2022-08-26T09:28:02.899Z,0.90
2022-08-26T09:29:02.763Z,1.30
2022-08-26T09:30:03.224Z,1.64
2022-08-26T09:31:05.717Z,1.14
2022-08-26T09:32:02.638Z,0.49
2022-08-26T09:33:02.836Z,0.88
2022-08-26T09:34:02.483Z,0.94
2022-08-26T09:35:02.310Z,0.81
2022-08-26T09:36:02.625Z,0.56
2022-08-26T09:37:04.696Z,0.92
2022-08-26T09:38:02.512Z,0.53
2022-08-26T09:39:02.651Z,0.60
2022-08-26T09:40:02.650Z,1.14
2022-08-26T09:41:02.854Z,1.52
2022-08-26T09:42:02.894Z,0.92
2022-08-26T09:43:02.944Z,0.72
2022-08-26T09:44:02.739Z,0.53
2022-08-26T09:45:02.556Z,1.18
2022-08-26T09:46:02.801Z,1.52
2022-08-26T09:47:03.287Z,0.80
2022-08-26T09:48:02.748Z,1.34
2022-08-26T09:49:02.768Z,2.20
2022-08-26T09:50:02.982Z,0.88
2022-08-26T09:51:03.201Z,0.12
2022-08-26T09:52:03.097Z,0.33
2022-08-26T09:53:02.918Z,1.18
2022-08-26T09:54:02.781Z,1.22
2022-08-26T09:55:03.470Z,0.68
2022-08-26T09:56:02.984Z,0.28
2022-08-26T09:57:02.820Z,1.30
2022-08-26T09:58:08.041Z,1.83
2022-08-26T09:59:02.961Z,1.08
2022-08-26T10:00:02.769Z,0.81
2022-08-26T10:01:03.023Z,0.48
2022-08-26T10:03:01.603Z,0.41
2022-08-26T10:04:01.931Z,1.04
2022-08-26T10:05:09.275Z,0.44
2022-08-26T10:06:02.117Z,1.55
2022-08-26T10:07:02.327Z,1.04
2022-08-26T10:08:01.878Z,1.59
2022-08-26T10:09:08.347Z,0.52
2022-08-26T10:10:01.983Z,1.02
2022-08-26T10:11:02.559Z,1.08
2022-08-26T10:12:03.019Z,0.92
2022-08-26T10:13:03.150Z,1.84
2022-08-26T10:14:03.011Z,1.10
2022-08-26T10:15:03.259Z,1.60
2022-08-26T10:16:02.577Z,1.30
2022-08-26T10:17:02.560Z,2.28
2022-08-26T10:18:01.989Z,0.65
2022-08-26T10:19:02.254Z,0.24
2022-08-26T10:20:02.456Z,3.00
2022-08-26T10:21:02.135Z,1.79
2022-08-26T10:22:02.596Z,0.68
2022-08-26T10:23:02.772Z,1.47
2022-08-26T10:24:02.466Z,0.81
2022-08-26T10:25:02.792Z,1.06
2022-08-26T10:26:02.241Z,0.41
2022-08-26T10:27:03.093Z,0.72
2022-08-26T10:28:02.932Z,0.94
2022-08-26T10:29:03.130Z,1.52
2022-08-26T10:30:02.978Z,1.10
2022-08-26T10:31:02.653Z,1.06
2022-08-26T10:32:02.698Z,1.02
2022-08-26T10:33:02.307Z,1.63
2022-08-26T10:34:01.898Z,2.12
2022-08-26T10:35:01.980Z,1.40
2022-08-26T10:36:02.138Z,0.68
2022-08-26T10:37:14.932Z,1.32
2022-08-26T10:38:02.551Z,1.34
2022-08-26T10:39:02.370Z,1.75
2022-08-26T10:40:02.608Z,1.96
2022-08-26T10:41:02.392Z,0.73
2022-08-26T10:42:03.142Z,1.60
2022-08-26T10:43:07.184Z,1.14
2022-08-26T10:44:02.657Z,1.87
2022-08-26T10:45:02.939Z,1.60
2022-08-26T10:46:02.828Z,1.79
2022-08-26T10:47:03.379Z,1.28
2022-08-26T10:48:03.148Z,1.99
2022-08-26T10:49:03.383Z,2.24
2022-08-26T10:50:03.642Z,0.73
2022-08-26T10:51:03.020Z,1.63
2022-08-26T10:52:02.899Z,0.77
2022-08-26T10:53:02.334Z,1.34
2022-08-26T10:54:03.281Z,1.04
2022-08-26T10:55:03.153Z,0.53
2022-08-26T10:56:02.863Z,1.88
2022-08-26T10:57:03.226Z,2.68
2022-08-26T10:58:05.451Z,1.55
2022-08-26T10:59:02.655Z,2.28
2022-08-26T11:00:03.135Z,0.04
2022-08-26T11:01:02.687Z,0.98
2022-08-26T11:02:03.795Z,0.92
2022-08-26T11:03:02.653Z,0.69
2022-08-26T11:04:02.704Z,1.00
2022-08-26T11:05:02.663Z,0.96
2022-08-26T11:06:03.291Z,2.28
2022-08-26T11:07:02.228Z,0.83
2022-08-26T11:08:02.610Z,1.36
2022-08-26T11:09:02.835Z,0.12
2022-08-26T11:10:02.608Z,1.14
2022-08-26T11:11:02.861Z,0.84
2022-08-26T11:12:06.769Z,1.38
2022-08-26T11:13:02.782Z,1.92
2022-08-26T11:14:02.915Z,1.84
2022-08-26T11:15:02.626Z,1.14
2022-08-26T11:16:02.761Z,1.28
2022-08-26T11:17:02.869Z,1.72
2022-08-26T11:18:02.956Z,1.96
2022-08-26T11:19:02.975Z,0.76
2022-08-26T11:20:07.409Z,1.10
2022-08-26T11:21:03.238Z,0.88
2022-08-26T11:22:03.163Z,0.85
2022-08-26T11:23:02.639Z,1.38
2022-08-26T11:24:02.575Z,1.67
2022-08-26T11:25:02.604Z,2.40
2022-08-26T11:26:02.617Z,1.44
2022-08-26T11:27:02.804Z,2.20
2022-08-26T11:28:03.496Z,2.28
2022-08-26T11:29:03.604Z,2.20
2022-08-26T11:30:03.459Z,0.20
2022-08-26T11:31:03.314Z,1.14
2022-08-26T11:32:03.183Z,1.59
2022-08-26T11:33:02.569Z,1.55
2022-08-26T11:34:02.756Z,1.36
2022-08-26T11:35:02.817Z,1.08
2022-08-26T11:36:07.400Z,1.36
2022-08-26T11:37:02.415Z,1.47
2022-08-26T11:38:04.234Z,1.36
2022-08-26T11:39:03.291Z,1.88
2022-08-26T11:40:03.903Z,0.90
2022-08-26T11:41:03.351Z,2.28
2022-08-26T11:42:03.500Z,1.48
2022-08-26T11:43:02.756Z,1.38
2022-08-26T11:44:02.699Z,0.77
2022-08-26T11:45:05.632Z,1.52
2022-08-26T11:46:03.012Z,2.48
2022-08-26T11:47:03.132Z,1.52
2022-08-26T11:48:02.899Z,0.57
2022-08-26T11:49:03.130Z,0.44
2022-08-26T11:50:03.184Z,0.68
2022-08-26T11:51:03.387Z,1.24
2022-08-26T11:52:03.171Z,1.99
2022-08-26T11:53:03.093Z,0.37
2022-08-26T11:54:03.132Z,1.04
2022-08-26T11:55:02.748Z,1.47
2022-08-26T11:56:02.884Z,1.28
2022-08-26T11:57:07.326Z,0.81
2022-08-26T11:58:04.880Z,1.36
2022-08-26T11:59:03.166Z,0.88
2022-08-26T12:00:03.239Z,0.40
2022-08-26T12:01:03.811Z,0.72
2022-08-26T12:02:03.747Z,1.18
2022-08-26T12:03:02.972Z,0.61
2022-08-26T12:04:03.202Z,0.76
2022-08-26T12:05:03.097Z,1.71
2022-08-26T12:06:02.842Z,1.59
2022-08-26T12:07:03.438Z,1.16
2022-08-26T12:08:03.053Z,1.22
2022-08-26T12:09:02.758Z,0.98
2022-08-26T12:10:02.499Z,0.73
2022-08-26T12:11:02.775Z,1.24
2022-08-26T12:12:02.650Z,1.22
2022-08-26T12:13:03.188Z,0.60
2022-08-26T12:14:02.899Z,1.71
2022-08-26T12:15:02.889Z,1.02
2022-08-26T12:16:03.527Z,0.92
2022-08-26T12:17:03.282Z,1.30
2022-08-26T12:18:02.930Z,2.28
2022-08-26T12:19:02.878Z,1.95
2022-08-26T12:20:02.705Z,1.47
2022-08-26T12:21:02.621Z,1.18
2022-08-26T12:22:02.747Z,0.28
2022-08-26T12:23:03.470Z,0.80
2022-08-26T12:24:03.513Z,1.00
2022-08-26T12:25:03.088Z,2.24
2022-08-26T12:26:03.212Z,2.04
2022-08-26T12:27:03.686Z,1.56
2022-08-26T12:28:03.169Z,1.02
2022-08-26T12:29:20.312Z,1.99
2022-08-26T12:30:03.388Z,0.68
2022-08-26T12:31:03.404Z,1.72
2022-08-26T12:32:03.412Z,1.55
2022-08-26T12:33:02.829Z,2.77
2022-08-26T12:34:02.827Z,1.79
2022-08-26T12:35:07.732Z,0.81
2022-08-26T12:36:02.902Z,0.68
2022-08-26T12:37:02.353Z,2.65
2022-08-26T12:38:02.981Z,1.60
2022-08-26T12:39:03.492Z,1.64
2022-08-26T12:40:03.413Z,1.83
2022-08-26T12:41:03.396Z,1.72
2022-08-26T12:42:03.115Z,1.55
2022-08-26T12:43:03.301Z,0.36
2022-08-26T12:44:03.318Z,1.40
2022-08-26T12:45:03.477Z,2.08
2022-08-26T12:46:03.661Z,2.44
2022-08-26T12:47:03.766Z,1.92
2022-08-26T12:48:03.108Z,2.03
2022-08-26T12:49:03.128Z,1.44
2022-08-26T12:50:02.960Z,1.79
2022-08-26T12:51:02.860Z,1.18
2022-08-26T12:52:02.693Z,1.59
2022-08-26T12:53:02.990Z,2.00
2022-08-26T12:54:03.228Z,1.72
2022-08-26T12:55:03.039Z,2.89
2022-08-26T12:56:03.071Z,1.56
2022-08-26T12:57:02.847Z,3.01
2022-08-26T12:58:03.571Z,3.00
2022-08-26T12:59:03.626Z,2.00
2022-08-26T13:00:03.508Z,1.38
2022-08-26T13:01:03.969Z,2.12
2022-08-26T13:02:03.689Z,1.75
2022-08-26T13:03:02.927Z,3.34
2022-08-26T13:04:02.929Z,2.96
2022-08-26T13:05:02.922Z,0.65
2022-08-26T13:06:03.095Z,1.12
2022-08-26T13:07:03.039Z,2.40
2022-08-26T13:08:02.908Z,2.69
2022-08-26T13:09:03.242Z,1.56
2022-08-26T13:10:03.252Z,2.48
2022-08-26T13:11:03.295Z,1.80
2022-08-26T13:12:03.160Z,2.12
2022-08-26T13:13:03.321Z,1.08
2022-08-26T13:14:03.322Z,2.85
2022-08-26T13:15:03.554Z,1.96
2022-08-26T13:16:03.707Z,2.40
2022-08-26T13:17:03.284Z,1.55
2022-08-26T13:18:03.411Z,0.96
2022-08-26T13:19:03.579Z,1.12